createdAt,value
2018-05-04T00:01:45.911Z,8.13
2018-05-04T00:02:50.519Z,8.02
2018-05-04T00:03:55.384Z,8.03
2018-05-04T00:04:59.923Z,7.96
2018-05-04T00:06:04.390Z,7.83
2018-05-04T00:07:09.305Z,7.66
2018-05-04T00:08:13.900Z,7.71
2018-05-04T00:09:19.129Z,7.85
2018-05-04T00:10:23.746Z,7.91
2018-05-04T00:11:28.799Z,7.94
2018-05-04T00:12:33.498Z,8.00
2018-05-04T00:13:38.514Z,7.93
2018-05-04T00:14:43.036Z,7.98
2018-05-04T00:15:47.600Z,7.95
2018-05-04T00:16:52.161Z,7.96
2018-05-04T00:17:56.868Z,7.96
2018-05-04T00:19:01.713Z,7.98
2018-05-04T00:20:06.530Z,8.03
2018-05-04T00:21:11.053Z,8.08
2018-05-04T00:22:15.587Z,8.13
2018-05-04T00:23:20.046Z,8.14
2018-05-04T00:24:24.503Z,8.12
2018-05-04T00:25:28.938Z,8.00
2018-05-04T00:26:33.662Z,7.85
2018-05-04T00:27:38.190Z,7.46
2018-05-04T00:28:42.574Z,7.30
2018-05-04T00:29:46.950Z,7.34
2018-05-04T00:30:51.296Z,7.49
2018-05-04T00:31:55.730Z,7.70
2018-05-04T00:33:00.452Z,7.76
2018-05-04T00:34:04.879Z,7.90
2018-05-04T00:35:09.317Z,7.88
2018-05-04T00:36:13.736Z,7.84
2018-05-04T00:37:18.214Z,7.79
2018-05-04T00:38:22.710Z,7.94
2018-05-04T00:39:27.439Z,7.90
2018-05-04T00:40:31.856Z,7.93
2018-05-04T00:41:36.289Z,7.98
2018-05-04T00:42:40.756Z,7.95
2018-05-04T00:43:45.146Z,7.93
2018-05-04T00:44:49.581Z,7.93
2018-05-04T00:45:54.356Z,7.87
2018-05-04T00:46:58.816Z,7.84
2018-05-04T00:48:03.315Z,7.84
2018-05-04T00:49:07.760Z,7.73
2018-05-04T00:50:12.242Z,7.71
2018-05-04T00:51:16.599Z,7.65
2018-05-04T00:52:21.250Z,7.68
2018-05-04T00:53:25.586Z,7.66
2018-05-04T00:54:29.958Z,7.62
2018-05-04T00:55:34.371Z,7.70
2018-05-04T00:56:38.737Z,7.72
2018-05-04T00:57:43.106Z,7.85
2018-05-04T00:58:47.763Z,7.83
2018-05-04T00:59:52.118Z,7.48
2018-05-04T01:00:56.994Z,7.38
2018-05-04T01:02:01.358Z,7.30
2018-05-04T01:03:05.894Z,7.32
2018-05-04T01:04:10.542Z,7.47
2018-05-04T01:05:15.553Z,7.42
2018-05-04T01:06:19.997Z,7.39
2018-05-04T01:07:24.570Z,7.48
2018-05-04T01:08:29.083Z,7.44
2018-05-04T01:09:33.573Z,7.53
2018-05-04T01:10:38.041Z,7.39
2018-05-04T01:11:42.873Z,7.42
2018-05-04T01:12:47.373Z,7.45
2018-05-04T01:13:52.522Z,7.31
2018-05-04T01:14:56.910Z,7.21
2018-05-04T01:16:01.400Z,7.30
2018-05-04T01:17:05.904Z,7.24
2018-05-04T01:18:10.666Z,7.26
2018-05-04T01:19:15.169Z,7.24
2018-05-04T01:20:19.628Z,7.11
2018-05-04T01:21:24.168Z,7.00
2018-05-04T01:22:28.637Z,7.00
2018-05-04T01:23:33.060Z,6.89
2018-05-04T01:24:37.797Z,6.90
2018-05-04T01:25:42.243Z,7.01
2018-05-04T01:26:46.723Z,7.11
2018-05-04T01:27:51.202Z,7.15
2018-05-04T01:28:55.650Z,7.20
2018-05-04T01:30:00.088Z,7.10
2018-05-04T01:31:04.804Z,7.01
2018-05-04T01:33:30.977Z,6.88
2018-05-04T01:34:35.451Z,7.00
2018-05-04T01:35:39.981Z,7.09
2018-05-04T01:36:44.813Z,7.06
2018-05-04T01:37:49.252Z,7.00
2018-05-04T01:38:53.770Z,6.96
2018-05-04T01:39:58.249Z,7.07
2018-05-04T01:41:02.704Z,6.96
2018-05-04T01:42:07.218Z,7.01
2018-05-04T01:43:11.987Z,7.00
2018-05-04T01:44:16.478Z,6.88
2018-05-04T01:45:24.033Z,6.82
2018-05-04T01:46:28.484Z,6.86
2018-05-04T01:47:32.925Z,6.96
2018-05-04T01:48:37.342Z,6.97
2018-05-04T01:49:42.029Z,6.79
2018-05-04T01:50:46.413Z,6.87
2018-05-04T01:51:50.949Z,6.94
2018-05-04T01:52:55.456Z,6.90
2018-05-04T01:53:59.851Z,6.77
2018-05-04T01:55:04.269Z,6.70
2018-05-04T01:56:09.020Z,6.60
2018-05-04T01:57:13.421Z,6.59
2018-05-04T01:58:17.820Z,6.66
2018-05-04T01:59:22.131Z,6.85
2018-05-04T02:00:26.571Z,6.81
2018-05-04T02:01:30.844Z,6.83
2018-05-04T02:02:35.430Z,6.71
2018-05-04T02:03:39.701Z,6.75
2018-05-04T02:04:44.033Z,6.73
2018-05-04T02:05:48.511Z,6.73
2018-05-04T02:06:52.841Z,6.60
2018-05-04T02:07:57.222Z,6.57
2018-05-04T02:09:01.870Z,6.54
2018-05-04T02:10:06.211Z,6.31
2018-05-04T02:11:10.532Z,5.79
2018-05-04T02:12:14.870Z,5.48
2018-05-04T02:13:19.228Z,5.26
2018-05-04T02:14:23.493Z,5.43
2018-05-04T02:15:28.106Z,5.66
2018-05-04T02:16:32.369Z,5.74
2018-05-04T02:17:36.660Z,5.75
2018-05-04T02:18:41.053Z,5.87
2018-05-04T02:19:45.452Z,5.95
2018-05-04T02:20:49.877Z,5.98
2018-05-04T02:21:54.548Z,6.13
2018-05-04T02:22:59.045Z,5.93
2018-05-04T02:24:03.556Z,5.55
2018-05-04T02:25:08.056Z,5.54
2018-05-04T02:26:12.528Z,5.62
2018-05-04T02:27:17.028Z,5.78
2018-05-04T02:28:21.855Z,5.93
2018-05-04T02:29:26.405Z,5.97
2018-05-04T02:30:31.005Z,6.07
2018-05-04T02:31:35.517Z,5.99
2018-05-04T02:32:39.923Z,5.99
2018-05-04T02:33:44.317Z,6.10
2018-05-04T02:34:48.992Z,6.09
2018-05-04T02:35:53.400Z,5.76
2018-05-04T02:36:57.862Z,5.64
2018-05-04T02:38:02.355Z,5.61
2018-05-04T02:39:06.863Z,5.65
2018-05-04T02:40:11.343Z,5.68
2018-05-04T02:41:16.145Z,5.63
2018-05-04T02:42:20.625Z,5.53
2018-05-04T02:43:25.031Z,5.58
2018-05-04T02:44:29.423Z,5.62
2018-05-04T02:45:33.946Z,5.66
2018-05-04T02:46:38.484Z,5.78
2018-05-04T02:47:43.251Z,5.92
2018-05-04T02:48:47.775Z,5.73
2018-05-04T02:49:52.228Z,5.53
2018-05-04T02:50:56.811Z,5.29
2018-05-04T02:52:01.370Z,5.16
2018-05-04T02:53:05.929Z,5.21
2018-05-04T02:54:10.799Z,5.16
2018-05-04T02:55:15.242Z,5.29
2018-05-04T02:56:19.670Z,5.26
2018-05-04T02:57:24.125Z,5.41
2018-05-04T02:58:28.651Z,5.48
2018-05-04T02:59:33.072Z,5.54
2018-05-04T03:00:37.864Z,5.47
2018-05-04T03:01:42.279Z,5.45
2018-05-04T03:02:46.655Z,5.44
2018-05-04T03:03:51.106Z,5.44
2018-05-04T03:04:55.606Z,5.46
2018-05-04T03:06:00.088Z,5.49
2018-05-04T03:07:04.961Z,5.47
2018-05-04T03:08:09.452Z,5.45
2018-05-04T03:09:13.848Z,5.45
2018-05-04T03:10:18.483Z,5.49
2018-05-04T03:11:22.980Z,5.59
2018-05-04T03:12:27.465Z,5.63
2018-05-04T03:13:32.249Z,5.75
2018-05-04T03:14:36.721Z,5.75
2018-05-04T03:15:41.204Z,5.50
2018-05-04T03:16:45.726Z,5.40
2018-05-04T03:17:50.205Z,5.29
2018-05-04T03:18:54.700Z,5.26
2018-05-04T03:20:01.718Z,5.26
2018-05-04T03:21:06.245Z,5.25
2018-05-04T03:22:10.752Z,5.26
2018-05-04T03:23:15.266Z,5.21
2018-05-04T03:24:19.768Z,5.34
2018-05-04T03:25:24.243Z,5.48
2018-05-04T03:26:29.001Z,5.32
2018-05-04T03:27:33.483Z,5.24
2018-05-04T03:28:37.986Z,5.35
2018-05-04T03:29:42.523Z,5.52
2018-05-04T03:30:47.042Z,5.65
2018-05-04T03:31:51.530Z,5.76
2018-05-04T03:32:56.320Z,5.79
2018-05-04T03:34:00.826Z,5.76
2018-05-04T03:35:05.392Z,5.84
2018-05-04T03:36:09.918Z,5.78
2018-05-04T03:37:14.425Z,5.73
2018-05-04T03:38:18.954Z,5.65
2018-05-04T03:39:23.725Z,5.71
2018-05-04T03:40:28.241Z,5.52
2018-05-04T03:41:32.754Z,5.35
2018-05-04T03:42:37.266Z,5.23
2018-05-04T03:43:41.743Z,5.28
2018-05-04T03:44:46.239Z,5.27
2018-05-04T03:45:51.022Z,5.31
2018-05-04T03:46:55.543Z,5.48
2018-05-04T03:48:00.064Z,5.41
2018-05-04T03:49:04.580Z,5.29
2018-05-04T03:50:09.102Z,5.20
2018-05-04T03:51:13.519Z,5.11
2018-05-04T03:52:18.172Z,4.94
2018-05-04T03:53:22.437Z,4.95
2018-05-04T03:54:26.944Z,4.87
2018-05-04T03:55:31.452Z,4.87
2018-05-04T03:56:35.942Z,4.90
2018-05-04T03:57:45.675Z,4.82
2018-05-04T03:58:55.450Z,4.93
2018-05-04T04:02:07.159Z,4.91
2018-05-04T04:03:16.903Z,5.11
2018-05-04T04:04:21.394Z,5.00
2018-05-04T04:05:25.966Z,5.15
2018-05-04T04:06:30.528Z,5.23
2018-05-04T04:07:35.083Z,5.32
2018-05-04T04:08:39.641Z,5.31
2018-05-04T04:09:44.490Z,5.40
2018-05-04T04:10:49.119Z,5.48
2018-05-04T04:11:53.682Z,5.47
2018-05-04T04:12:58.210Z,5.38
2018-05-04T04:14:02.763Z,5.09
2018-05-04T04:15:07.370Z,5.16
2018-05-04T04:16:12.213Z,5.09
2018-05-04T04:17:16.782Z,5.00
2018-05-04T04:18:21.306Z,4.96
2018-05-04T04:19:25.772Z,5.00
2018-05-04T04:20:30.269Z,4.98
2018-05-04T04:21:34.765Z,5.02
2018-05-04T04:22:39.526Z,4.93
2018-05-04T04:23:43.988Z,4.94
2018-05-04T04:24:48.462Z,4.91
2018-05-04T04:25:52.929Z,5.01
2018-05-04T04:26:57.443Z,4.90
2018-05-04T04:28:01.902Z,5.03
2018-05-04T04:29:06.713Z,5.24
2018-05-04T04:30:11.178Z,5.22
2018-05-04T04:31:15.695Z,5.18
2018-05-04T04:32:20.223Z,5.15
2018-05-04T04:33:24.729Z,5.22
2018-05-04T04:34:29.231Z,5.21
2018-05-04T04:35:34.120Z,5.21
2018-05-04T04:36:38.615Z,5.03
2018-05-04T04:37:43.076Z,5.10
2018-05-04T04:38:47.663Z,5.06
2018-05-04T04:39:52.145Z,5.08
2018-05-04T04:40:56.602Z,4.86
2018-05-04T04:42:01.458Z,4.65
2018-05-04T04:43:05.967Z,4.68
2018-05-04T04:44:10.451Z,4.52
2018-05-04T04:45:14.835Z,4.42
2018-05-04T04:46:19.328Z,4.39
2018-05-04T04:47:23.831Z,4.42
2018-05-04T04:48:28.742Z,4.44
2018-05-04T04:49:33.397Z,4.46
2018-05-04T04:50:37.919Z,4.41
2018-05-04T04:51:42.415Z,4.35
2018-05-04T04:52:47.054Z,4.30
2018-05-04T04:53:51.552Z,4.39
2018-05-04T04:54:56.335Z,4.48
2018-05-04T04:56:00.752Z,4.57
2018-05-04T04:57:05.176Z,4.71
2018-05-04T04:58:09.600Z,4.77
2018-05-04T04:59:14.082Z,4.96
2018-05-04T05:00:18.569Z,5.07
2018-05-04T05:01:23.346Z,5.15
2018-05-04T05:02:27.784Z,4.97
2018-05-04T05:03:32.313Z,4.86
2018-05-04T05:04:36.816Z,5.09
2018-05-04T05:05:41.362Z,5.23
2018-05-04T05:06:45.861Z,5.32
2018-05-04T05:07:50.358Z,5.36
2018-05-04T05:08:54.979Z,5.41
2018-05-04T05:09:59.514Z,5.48
2018-05-04T05:11:04.012Z,5.48
2018-05-04T05:12:08.503Z,5.55
2018-05-04T05:13:13.494Z,5.38
2018-05-04T05:14:18.003Z,5.29
2018-05-04T05:15:22.508Z,5.17
2018-05-04T05:16:27.031Z,4.96
2018-05-04T05:17:31.531Z,4.86
2018-05-04T05:18:38.004Z,4.90
2018-05-04T05:19:43.113Z,5.14
2018-05-04T05:20:47.587Z,4.94
2018-05-04T05:21:52.227Z,4.70
2018-05-04T05:22:56.795Z,4.59
2018-05-04T05:24:01.218Z,4.66
2018-05-04T05:25:07.857Z,4.85
2018-05-04T05:26:12.678Z,5.02
2018-05-04T05:27:17.182Z,5.23
2018-05-04T05:28:21.775Z,5.15
2018-05-04T05:29:26.348Z,5.33
2018-05-04T05:30:30.781Z,5.54
2018-05-04T05:31:35.290Z,5.61
2018-05-04T05:32:39.765Z,5.71
2018-05-04T05:33:44.382Z,5.78
2018-05-04T05:34:48.937Z,5.80
2018-05-04T05:35:53.424Z,5.95
2018-05-04T05:36:57.994Z,5.92
2018-05-04T05:38:02.519Z,5.99
2018-05-04T05:39:07.575Z,5.89
2018-05-04T05:40:12.092Z,5.85
2018-05-04T05:41:16.618Z,6.01
2018-05-04T05:42:21.662Z,6.19
2018-05-04T05:43:26.175Z,6.20
2018-05-04T05:44:30.738Z,6.28
2018-05-04T05:45:35.713Z,6.37
2018-05-04T05:46:40.210Z,6.40
2018-05-04T05:47:44.812Z,6.44
2018-05-04T05:48:49.366Z,6.46
2018-05-04T05:49:53.878Z,6.62
2018-05-04T05:50:58.404Z,6.77
2018-05-04T05:52:03.481Z,6.89
2018-05-04T05:53:08.098Z,6.84
2018-05-04T05:54:12.705Z,6.73
2018-05-04T05:55:17.157Z,6.87
2018-05-04T05:56:21.750Z,6.96
2018-05-04T05:57:26.303Z,7.07
2018-05-04T05:58:31.405Z,7.22
2018-05-04T05:59:35.943Z,7.31
2018-05-04T06:00:40.498Z,7.37
2018-05-04T06:01:45.073Z,7.42
2018-05-04T06:02:49.688Z,7.52
2018-05-04T06:03:54.193Z,7.60
2018-05-04T06:04:59.135Z,7.71
2018-05-04T06:06:03.687Z,7.78
2018-05-04T06:07:08.181Z,7.91
2018-05-04T06:08:12.663Z,7.95
2018-05-04T06:09:17.210Z,7.96
2018-05-04T06:10:21.724Z,7.97
2018-05-04T06:11:26.595Z,7.87
2018-05-04T06:12:31.221Z,7.76
2018-05-04T06:13:38.417Z,7.82
2018-05-04T06:14:43.037Z,7.91
2018-05-04T06:15:47.565Z,7.90
2018-05-04T06:16:52.082Z,8.10
2018-05-04T06:17:57.059Z,8.17
2018-05-04T06:19:01.592Z,8.22
2018-05-04T06:20:06.211Z,8.37
2018-05-04T06:21:10.737Z,8.46
2018-05-04T06:22:15.230Z,8.58
2018-05-04T06:23:19.714Z,8.69
2018-05-04T06:24:24.675Z,8.90
2018-05-04T06:25:29.173Z,9.20
2018-05-04T06:26:33.698Z,9.35
2018-05-04T06:27:38.167Z,9.39
2018-05-04T06:28:42.697Z,9.47
2018-05-04T06:29:47.200Z,9.53
2018-05-04T06:30:52.180Z,9.55
2018-05-04T06:31:56.725Z,9.61
2018-05-04T06:33:01.197Z,9.67
2018-05-04T06:34:05.691Z,9.68
2018-05-04T06:35:10.268Z,9.72
2018-05-04T06:36:14.935Z,9.72
2018-05-04T06:37:19.960Z,9.92
2018-05-04T06:38:24.596Z,10.24
2018-05-04T06:39:29.174Z,10.32
2018-05-04T06:40:33.784Z,10.42
2018-05-04T06:41:39.281Z,10.52
2018-05-04T06:42:43.783Z,10.53
2018-05-04T06:43:48.775Z,10.62
2018-05-04T06:44:54.318Z,10.65
2018-05-04T06:45:59.249Z,10.70
2018-05-04T06:47:04.463Z,10.76
2018-05-04T06:48:10.085Z,11.06
2018-05-04T06:49:15.680Z,11.14
2018-05-04T06:50:23.027Z,11.17
2018-05-04T06:51:28.067Z,11.26
2018-05-04T06:52:33.614Z,11.50
2018-05-04T06:53:38.881Z,11.53
2018-05-04T06:54:44.175Z,11.67
2018-05-04T06:55:49.347Z,11.84
2018-05-04T06:56:55.521Z,12.00
2018-05-04T06:58:01.401Z,12.15
2018-05-04T06:59:06.651Z,12.26
2018-05-04T07:00:11.743Z,12.47
2018-05-04T07:01:16.844Z,12.51
2018-05-04T07:02:21.361Z,12.72
2018-05-04T07:03:26.374Z,12.97
2018-05-04T07:04:30.950Z,13.02
2018-05-04T07:05:36.685Z,13.00
2018-05-04T07:06:41.222Z,13.16
2018-05-04T07:07:46.142Z,13.46
2018-05-04T07:08:51.717Z,13.53
2018-05-04T07:09:56.465Z,13.60
2018-05-04T07:11:01.594Z,13.76
2018-05-04T07:12:05.983Z,13.96
2018-05-04T07:13:10.524Z,14.01
2018-05-04T07:14:15.417Z,14.13
2018-05-04T07:15:20.325Z,14.06
2018-05-04T07:16:25.366Z,13.99
2018-05-04T07:17:29.860Z,13.99
2018-05-04T07:18:34.588Z,14.04
2018-05-04T07:19:39.603Z,14.10
2018-05-04T07:20:44.514Z,14.18
2018-05-04T07:21:49.822Z,14.26
2018-05-04T07:22:54.363Z,14.17
2018-05-04T07:23:58.986Z,14.30
2018-05-04T07:25:04.080Z,14.21
2018-05-04T07:26:08.620Z,14.45
2018-05-04T07:27:13.470Z,14.30
2018-05-04T07:28:18.277Z,14.44
2018-05-04T07:29:22.739Z,14.86
2018-05-04T07:30:27.238Z,14.70
2018-05-04T07:31:31.782Z,14.63
2018-05-04T07:32:36.466Z,14.69
2018-05-04T07:33:41.128Z,14.97
2018-05-04T07:34:46.086Z,15.04
2018-05-04T07:35:50.596Z,14.73
2018-05-04T07:36:55.240Z,14.68
2018-05-04T07:37:59.910Z,14.74
2018-05-04T07:39:04.639Z,14.96
2018-05-04T07:40:09.215Z,15.09
2018-05-04T07:41:13.755Z,14.81
2018-05-04T07:42:18.161Z,14.99
2018-05-04T07:43:22.582Z,14.88
2018-05-04T07:44:27.356Z,15.12
2018-05-04T07:45:32.004Z,15.02
2018-05-04T07:46:36.917Z,15.04
2018-05-04T07:47:41.616Z,14.87
2018-05-04T07:48:46.303Z,14.94
2018-05-04T07:49:50.835Z,14.86
2018-05-04T07:50:55.505Z,15.00
2018-05-04T07:52:00.042Z,15.19
2018-05-04T07:53:05.054Z,15.15
2018-05-04T07:54:09.539Z,15.35
2018-05-04T07:55:14.228Z,15.26
2018-05-04T07:56:23.064Z,15.15
2018-05-04T07:57:27.578Z,15.15
2018-05-04T07:58:32.200Z,15.12
2018-05-04T07:59:37.241Z,15.25
2018-05-04T08:00:41.820Z,15.21
2018-05-04T08:01:46.584Z,15.31
2018-05-04T08:02:51.183Z,15.39
2018-05-04T08:03:55.835Z,15.39
2018-05-04T08:05:00.519Z,15.65
2018-05-04T08:06:05.501Z,15.87
2018-05-04T08:07:10.146Z,16.16
2018-05-04T08:08:14.731Z,16.26
2018-05-04T08:09:19.281Z,16.36
2018-05-04T08:10:23.801Z,16.64
2018-05-04T08:11:28.320Z,16.67
2018-05-04T08:12:33.382Z,16.67
2018-05-04T08:13:37.971Z,16.67
2018-05-04T08:14:42.739Z,16.83
2018-05-04T08:15:47.594Z,16.82
2018-05-04T08:16:52.121Z,16.80
2018-05-04T08:17:56.660Z,16.85
2018-05-04T08:19:01.150Z,16.66
2018-05-04T08:20:05.874Z,16.42
2018-05-04T08:21:10.899Z,16.69
2018-05-04T08:22:15.499Z,17.11
2018-05-04T08:23:20.049Z,17.27
2018-05-04T08:24:24.952Z,17.28
2018-05-04T08:25:29.543Z,17.70
2018-05-04T08:26:34.066Z,17.12
2018-05-04T08:27:38.614Z,16.95
2018-05-04T08:28:43.131Z,16.79
2018-05-04T08:29:47.529Z,16.95
2018-05-04T08:30:52.294Z,17.20
2018-05-04T08:31:56.684Z,17.73
2018-05-04T08:33:01.080Z,18.05
2018-05-04T08:34:07.123Z,18.11
2018-05-04T08:35:12.012Z,18.32
2018-05-04T08:36:16.498Z,18.39
2018-05-04T08:37:21.404Z,18.18
2018-05-04T08:38:25.942Z,18.19
2018-05-04T08:39:30.498Z,17.97
2018-05-04T08:40:35.167Z,17.95
2018-05-04T08:41:39.730Z,18.22
2018-05-04T08:42:44.341Z,18.12
2018-05-04T08:43:48.916Z,18.13
2018-05-04T08:44:53.503Z,18.45
2018-05-04T08:45:58.430Z,18.71
2018-05-04T08:47:03.137Z,18.58
2018-05-04T08:48:07.761Z,18.90
2018-05-04T08:49:12.792Z,18.57
2018-05-04T08:50:17.328Z,18.42
2018-05-04T08:51:21.918Z,18.43
2018-05-04T08:52:26.548Z,18.17
2018-05-04T08:53:31.086Z,18.52
2018-05-04T08:54:35.546Z,18.43
2018-05-04T08:55:40.413Z,18.15
2018-05-04T08:56:44.882Z,17.87
2018-05-04T08:57:49.316Z,17.73
2018-05-04T08:58:53.758Z,17.67
2018-05-04T08:59:58.214Z,17.54
2018-05-04T09:01:02.678Z,17.82
2018-05-04T09:02:07.476Z,18.19
2018-05-04T09:03:12.054Z,18.14
2018-05-04T09:04:16.529Z,18.27
2018-05-04T09:05:21.140Z,18.50
2018-05-04T09:06:25.632Z,18.26
2018-05-04T09:07:30.171Z,18.19
2018-05-04T09:08:35.059Z,18.21
2018-05-04T09:09:39.589Z,18.06
2018-05-04T09:10:44.129Z,17.87
2018-05-04T09:11:48.634Z,17.71
2018-05-04T09:12:53.274Z,17.90
2018-05-04T09:13:57.837Z,18.19
2018-05-04T09:15:02.800Z,18.30
2018-05-04T09:16:07.840Z,18.26
2018-05-04T09:17:12.299Z,18.29
2018-05-04T09:18:17.781Z,18.52
2018-05-04T09:19:22.461Z,18.75
2018-05-04T09:20:27.144Z,18.74
2018-05-04T09:21:31.646Z,18.42
2018-05-04T09:22:36.201Z,18.55
2018-05-04T09:23:40.750Z,18.66
2018-05-04T09:24:45.391Z,18.55
2018-05-04T09:25:50.067Z,18.61
2018-05-04T09:26:54.802Z,18.43
2018-05-04T09:27:59.416Z,18.81
2018-05-04T09:29:04.046Z,18.72
2018-05-04T09:30:08.697Z,18.88
2018-05-04T09:31:13.717Z,18.98
2018-05-04T09:32:18.213Z,18.94
2018-05-04T09:33:22.904Z,19.01
2018-05-04T09:34:27.565Z,18.87
2018-05-04T09:35:32.309Z,19.08
2018-05-04T09:36:36.980Z,18.46
2018-05-04T09:37:42.194Z,18.21
2018-05-04T09:38:46.811Z,18.23
2018-05-04T09:39:51.501Z,17.98
2018-05-04T09:40:57.415Z,18.05
2018-05-04T09:42:02.401Z,17.93
2018-05-04T09:43:07.976Z,18.40
2018-05-04T09:44:12.921Z,18.63
2018-05-04T09:45:18.550Z,18.50
2018-05-04T09:46:23.114Z,18.55
2018-05-04T09:47:27.622Z,19.00
2018-05-04T09:48:32.171Z,19.16
2018-05-04T09:49:36.716Z,19.20
2018-05-04T09:50:41.538Z,19.43
2018-05-04T09:51:46.098Z,19.08
2018-05-04T09:52:51.090Z,18.69
2018-05-04T09:53:55.849Z,18.46
2018-05-04T09:55:00.393Z,18.49
2018-05-04T09:56:06.119Z,18.43
2018-05-04T09:57:12.757Z,18.00
2018-05-04T09:58:17.408Z,18.19
2018-05-04T09:59:22.647Z,18.53
2018-05-04T10:00:27.366Z,18.90
2018-05-04T10:01:32.722Z,18.86
2018-05-04T10:02:37.254Z,19.11
2018-05-04T10:03:42.207Z,19.35
2018-05-04T10:04:46.747Z,19.65
2018-05-04T10:05:51.290Z,19.91
2018-05-04T10:06:55.798Z,19.92
2018-05-04T10:08:00.381Z,19.96
2018-05-04T10:09:05.121Z,19.94
2018-05-04T10:10:09.723Z,20.24
2018-05-04T10:11:14.279Z,20.03
2018-05-04T10:12:19.330Z,19.86
2018-05-04T10:13:23.933Z,20.03
2018-05-04T10:14:28.487Z,19.97
2018-05-04T10:15:33.434Z,19.78
2018-05-04T10:16:38.008Z,19.65
2018-05-04T10:17:42.630Z,19.82
2018-05-04T10:18:47.172Z,19.78
2018-05-04T10:19:51.952Z,19.65
2018-05-04T10:20:56.619Z,19.63
2018-05-04T10:22:01.686Z,19.55
2018-05-04T10:23:06.375Z,19.35
2018-05-04T10:24:11.020Z,19.57
2018-05-04T10:25:15.672Z,19.76
2018-05-04T10:26:20.310Z,19.95
2018-05-04T10:27:25.239Z,19.99
2018-05-04T10:28:30.462Z,20.02
2018-05-04T10:29:35.151Z,19.97
2018-05-04T10:30:39.899Z,20.25
2018-05-04T10:31:44.480Z,20.35
2018-05-04T10:32:49.145Z,20.10
2018-05-04T10:33:54.065Z,20.07
2018-05-04T10:34:58.760Z,20.30
2018-05-04T10:36:03.382Z,20.52
2018-05-04T10:37:08.021Z,20.74
2018-05-04T10:38:13.356Z,20.84
2018-05-04T10:39:17.997Z,21.16
2018-05-04T10:40:23.166Z,21.03
2018-05-04T10:41:27.734Z,20.63
2018-05-04T10:42:32.537Z,20.22
2018-05-04T10:43:37.164Z,19.96
2018-05-04T10:44:41.839Z,20.00
2018-05-04T10:45:46.499Z,20.17
2018-05-04T10:46:51.638Z,20.32
2018-05-04T10:47:56.345Z,20.31
2018-05-04T10:49:01.021Z,20.64
2018-05-04T10:50:05.660Z,20.83
2018-05-04T10:51:10.303Z,20.98
2018-05-04T10:52:14.946Z,20.96
2018-05-04T10:53:19.952Z,20.59
2018-05-04T10:54:24.550Z,20.56
2018-05-04T10:55:29.243Z,20.54
2018-05-04T10:56:33.990Z,20.57
2018-05-04T10:57:38.635Z,20.58
2018-05-04T10:58:43.306Z,20.73
2018-05-04T10:59:48.030Z,21.20
2018-05-04T11:00:53.214Z,21.46
2018-05-04T11:01:57.989Z,21.45
2018-05-04T11:03:02.677Z,21.45
2018-05-04T11:04:07.288Z,21.17
2018-05-04T11:05:11.918Z,20.93
2018-05-04T11:06:16.554Z,20.86
2018-05-04T11:07:21.249Z,20.82
2018-05-04T11:08:25.762Z,20.84
2018-05-04T11:09:30.348Z,20.80
2018-05-04T11:10:34.969Z,20.70
2018-05-04T11:11:39.598Z,20.19
2018-05-04T11:12:44.258Z,19.59
2018-05-04T11:13:48.874Z,20.11
2018-05-04T11:14:53.433Z,20.55
2018-05-04T11:15:59.139Z,20.78
2018-05-04T11:17:04.179Z,20.95
2018-05-04T11:18:08.599Z,20.72
2018-05-04T11:19:13.137Z,20.28
2018-05-04T11:20:17.685Z,19.90
2018-05-04T11:21:22.270Z,19.84
2018-05-04T11:22:27.378Z,20.42
2018-05-04T11:23:31.973Z,20.57
2018-05-04T11:24:36.828Z,20.74
2018-05-04T11:25:41.381Z,20.85
2018-05-04T11:26:45.994Z,21.20
2018-05-04T11:27:50.548Z,21.30
2018-05-04T11:28:55.576Z,21.01
2018-05-04T11:30:00.162Z,20.90
2018-05-04T11:31:04.805Z,21.05
2018-05-04T11:32:09.362Z,20.90
2018-05-04T11:33:13.914Z,21.15
2018-05-04T11:34:18.503Z,21.33
2018-05-04T11:35:23.386Z,21.25
2018-05-04T11:36:28.720Z,21.21
2018-05-04T11:37:33.287Z,21.37
2018-05-04T11:38:38.060Z,21.72
2018-05-04T11:39:42.619Z,21.41
2018-05-04T11:40:47.198Z,21.24
2018-05-04T11:41:51.893Z,21.38
2018-05-04T11:42:56.500Z,21.07
2018-05-04T11:44:01.177Z,21.15
2018-05-04T11:45:05.767Z,21.19
2018-05-04T11:46:10.412Z,21.43
2018-05-04T11:47:16.184Z,21.66
2018-05-04T11:48:20.720Z,21.75
2018-05-04T11:49:25.365Z,21.83
2018-05-04T11:50:30.056Z,21.87
2018-05-04T11:51:34.929Z,21.83
2018-05-04T11:52:39.618Z,22.03
2018-05-04T11:53:44.266Z,22.07
2018-05-04T11:54:48.819Z,22.10
2018-05-04T11:55:53.409Z,21.33
2018-05-04T11:56:58.025Z,21.14
2018-05-04T11:58:02.673Z,21.18
2018-05-04T11:59:07.606Z,20.86
2018-05-04T12:00:12.263Z,20.76
2018-05-04T12:01:16.833Z,20.97
2018-05-04T12:02:21.574Z,21.32
2018-05-04T12:03:26.269Z,21.71
2018-05-04T12:04:31.399Z,21.45
2018-05-04T12:05:37.072Z,21.55
2018-05-04T12:06:41.753Z,21.30
2018-05-04T12:07:46.451Z,21.50
2018-05-04T12:08:50.969Z,21.64
2018-05-04T12:09:55.654Z,21.59
2018-05-04T12:11:00.718Z,21.15
2018-05-04T12:12:05.622Z,21.20
2018-05-04T12:13:10.307Z,21.18
2018-05-04T12:14:15.588Z,21.50
2018-05-04T12:15:20.257Z,21.58
2018-05-04T12:16:24.821Z,21.65
2018-05-04T12:17:29.403Z,21.87
2018-05-04T12:18:34.467Z,22.20
2018-05-04T12:19:40.152Z,22.36
2018-05-04T12:20:44.905Z,22.54
2018-05-04T12:21:49.557Z,22.20
2018-05-04T12:22:54.484Z,21.69
2018-05-04T12:24:00.004Z,21.37
2018-05-04T12:25:05.011Z,21.61
2018-05-04T12:26:17.773Z,21.80
2018-05-04T12:27:22.374Z,21.99
2018-05-04T12:28:26.942Z,21.85
2018-05-04T12:29:40.767Z,21.98
2018-05-04T12:30:45.815Z,22.25
2018-05-04T12:31:50.980Z,22.22
2018-05-04T12:32:56.052Z,22.25
2018-05-04T12:34:00.871Z,22.43
2018-05-04T12:35:05.950Z,22.26
2018-05-04T12:36:10.570Z,22.66
2018-05-04T12:37:15.439Z,22.55
2018-05-04T12:38:23.176Z,21.76
2018-05-04T12:39:27.691Z,21.66
2018-05-04T12:40:33.620Z,21.88
2018-05-04T12:41:38.780Z,21.90
2018-05-04T12:42:44.260Z,22.22
2018-05-04T12:43:49.035Z,22.07
2018-05-04T12:44:55.481Z,21.73
2018-05-04T12:46:00.439Z,21.50
2018-05-04T12:47:05.351Z,21.59
2018-05-04T12:48:10.683Z,22.17
2018-05-04T12:49:15.635Z,21.74
2018-05-04T12:50:20.605Z,21.47
2018-05-04T12:51:25.378Z,21.47
2018-05-04T12:52:30.320Z,21.89
2018-05-04T12:53:38.684Z,22.21
2018-05-04T12:55:12.613Z,22.37
2018-05-04T12:56:17.209Z,22.51
2018-05-04T12:57:21.785Z,22.49
2018-05-04T12:58:26.395Z,22.42
2018-05-04T12:59:30.978Z,21.85
2018-05-04T13:00:35.680Z,21.74
2018-05-04T13:01:40.615Z,22.08
2018-05-04T13:02:45.248Z,21.88
2018-05-04T13:03:49.929Z,21.96
2018-05-04T13:04:54.732Z,22.23
2018-05-04T13:05:59.346Z,22.49
2018-05-04T13:07:03.970Z,22.75
2018-05-04T13:08:08.910Z,23.06
2018-05-04T13:09:13.509Z,23.41
2018-05-04T13:10:18.110Z,23.04
2018-05-04T13:11:22.742Z,22.22
2018-05-04T13:12:27.419Z,22.08
2018-05-04T13:13:32.201Z,21.88
2018-05-04T13:14:37.348Z,21.73
2018-05-04T13:15:42.519Z,21.96
2018-05-04T13:16:47.180Z,22.00
2018-05-04T13:17:51.668Z,22.06
2018-05-04T13:18:56.093Z,22.51
2018-05-04T13:20:00.524Z,22.13
2018-05-04T13:21:05.367Z,22.45
2018-05-04T13:22:09.911Z,22.60
2018-05-04T13:23:14.432Z,23.00
2018-05-04T13:24:18.980Z,23.10
2018-05-04T13:25:23.488Z,22.58
2018-05-04T13:26:28.106Z,22.53
2018-05-04T13:27:33.175Z,22.83
2018-05-04T13:28:37.743Z,23.16
2018-05-04T13:29:42.282Z,23.22
2018-05-04T13:30:46.947Z,23.18
2018-05-04T13:31:51.576Z,22.99
2018-05-04T13:32:56.306Z,22.74
2018-05-04T13:34:00.985Z,22.78
2018-05-04T13:35:05.658Z,22.98
2018-05-04T13:36:10.319Z,23.45
2018-05-04T13:37:15.018Z,23.19
2018-05-04T13:38:19.985Z,23.45
2018-05-04T13:39:24.644Z,23.65
2018-05-04T13:40:29.608Z,23.82
2018-05-04T13:41:34.272Z,23.63
2018-05-04T13:42:39.027Z,23.20
2018-05-04T13:43:43.708Z,22.32
2018-05-04T13:44:48.335Z,21.90
2018-05-04T13:45:52.949Z,21.72
2018-05-04T13:46:57.594Z,22.15
2018-05-04T13:48:02.199Z,22.58
2018-05-04T13:49:06.953Z,23.09
2018-05-04T13:50:12.437Z,23.36
2018-05-04T13:51:17.155Z,23.31
2018-05-04T13:52:21.787Z,22.71
2018-05-04T13:53:26.400Z,23.23
2018-05-04T13:54:31.055Z,22.99
2018-05-04T13:55:35.666Z,23.08
2018-05-04T13:56:40.479Z,23.91
2018-05-04T13:57:45.066Z,24.02
2018-05-04T13:58:49.699Z,23.56
2018-05-04T13:59:54.294Z,23.44
2018-05-04T14:00:58.913Z,24.03
2018-05-04T14:02:03.752Z,24.60
2018-05-04T14:03:08.917Z,24.55
2018-05-04T14:04:13.521Z,23.94
2018-05-04T14:05:20.152Z,23.79
2018-05-04T14:06:25.800Z,24.40
2018-05-04T14:07:30.583Z,24.89
2018-05-04T14:08:35.336Z,25.19
2018-05-04T14:09:40.476Z,24.97
2018-05-04T14:10:45.107Z,25.69
2018-05-04T14:11:49.691Z,24.19